EGGDLPFR

Guest
Details From EGGD - Bristol Lulsgate
To LPFR - Faro
Flight Number -
Tags Generated
Created
Modified
Stats Distance 892 nm / 1,652 km
Max Altitude 0 ft / 0 m
Waypoints 5
Social Downloads 1
Likes 0
Share VATSIM

Download

Looking for another format? Having issues loading an existing format? Contact us
Advertisement - Login to hide

Notes

Generated

Route

EGGD KEREB PINOX VFA10 LPFR

ID Type Via Altitude Latitude Longitude Leg Dist Tot Dist Heading (true) Name
O EGGD APT - 0 ft / 0 m 51.38211˚ -2.73350˚ - 0 nm - -
KEREB FIX - 0 ft / 0 m 47.59139˚ -4.52472˚ 238 nm 238 nm 198° / 196° -
PINOX FIX - 0 ft / 0 m 40.29056˚ -7.10917˚ 452 nm 690 nm 195° / 193° -
VFA10 FIX - 0 ft / 0 m 37.01784˚ -7.99512˚ 200 nm 891 nm 192° / 192° -
O LPFR APT - 0 ft / 0 m 37.01729˚ -7.98609˚ 0 nm 891 nm 94° / 94° -

Altitude Profile

Advertisement - Login to hide

Weather


0- 5 10 15 20 25 30 35+ Temperature / ° C

Clouds and Precipitation
Forecast for 2018-05-24 00:00 UTC. Updated 4 hours ago

Ground ~20,000 ft ~40,000 ft Winds

EGGD

Details ICAO EGGD (BRS)
Name Bristol International
Region United Kingdom
Timezone Europe/London (UTC+1.0)
Stats Elevation 622 ft / 190 m (AMSL)
Location 51.382658° -2.718918°
Runways 1
Magnetic Variation 1.284° W

METAR

EGGD 240220Z AUTO 06011KT 9999 -RA FEW011 10/10 Q1022 RERA

Decode

TAF

TAF AMD EGGD 240240Z 2402/2424 06010KT 9999 FEW020 TEMPO 2402/2412 4000 SHRA BKN005 TEMPO 2412/2423 6000 SHRA PROB30 TEMPO 2412/2422 3000 +SHRA +TSRA BKN008 BKN030CB

Decode

Departure Runways

ID Width Length Bearing (true) Bearing (mag) Surface Threshold Offset Overrun Length
09 148 ft / 45 m 6,655 ft / 2,029 m 86.42° 87.70° Asphalt 0 ft / 0 m 0 ft / 0 m
27 148 ft / 45 m 6,655 ft / 2,029 m 266.44° 267.72° Asphalt 499 ft / 152 m 0 ft / 0 m

LPFR

Details ICAO LPFR (FAO)
Name Faro
Region Portugal
Timezone Europe/Lisbon (UTC+1.0)
Stats Elevation 24 ft / 7 m (AMSL)
Location 37.015336° -7.972327°
Runways 1
Magnetic Variation 1.883° W

METAR

LPFR 240230Z 25007KT 9999 FEW030 17/14 Q1012

Decode

TAF

TAF LPFR 232300Z 2400/2424 28007KT 9999 FEW025 TEMPO 2401/2420 8000 SHRA BKN020 FEW025TCU BECMG 2407/2410 24010KT PROB30 TEMPO 2410/2418 3000 TSRA SCT020CB BECMG 2420/2423 VRB03KT SCT012

Decode

Destination Runways

ID Width Length Bearing (true) Bearing (mag) Surface Threshold Offset Overrun Length
10 148 ft / 45 m 8,148 ft / 2,484 m 100.08° 101.96° Asphalt 148 ft / 45 m 0 ft / 0 m
28 148 ft / 45 m 8,148 ft / 2,484 m 280.10° 281.98° Asphalt 148 ft / 45 m 0 ft / 0 m

Approach Navaids

Runway Type Ident Frequency Range Bearing (true) Bearing (mag) Slope Elevation
28 Localiser IIF 109.50 MHz 18 nm / 33 km 280.16° 282.05° - 24 ft / 7 m (AMSL)
28 Glidescope IIF 109.50 MHz 10 nm / 19 km 280.09° 281.97° 3.00° 24 ft / 7 m (AMSL)
28 DME IIF 109.50 MHz 18 nm / 33 km - - - 24 ft / 7 m (AMSL)

Popular Alternatives